Terminal Aerodrome Forecast
Issued by NWS Wakefield, VA

Home | Current Version | Previous Version | Text Only | Print | Product List | Glossary On
Versions: 1 2 3 4 5 6 7 8 9 10 11 12 13 14 15 16 17 18 19 20 21 22 23 24 25 26 27 28
000
FTUS41 KAKQ 240245 AAB
TAFSBY
TAF AMD
KSBY 240245Z 2403/2424 06008KT 6SM -RA SCT050 BKN110
      TEMPO 2403/2406 4SM -RA BR BKN005
     FM240600 06010KT 4SM -RA OVC005
     FM240800 04010KT P6SM VCSH OVC006
     FM241000 03009KT P6SM OVC007
     FM241300 02008KT P6SM OVC010
     FM241800 06009KT P6SM BKN025=

USA.gov is the U.S. government's official web portal to all federal, state and local government web resources and services.